Time,TemperatureF,DewpointF,PressureIn,WindDirection,WindDirectionDegrees,WindSpeedMPH,WindSpeedGustMPH,Humidity,HourlyPrecipIn,Conditions,Clouds,dailyrainin,SolarRadiationWatts/m^2,SoftwareType,DateUTC
2013-09-15 00:02:00,57.5,52.0,30.05,WNW,285,2.0,7.0,81,0.00,,,0.00,0,weatherlink.com 1.10,2013-09-15 04:02:00,
2013-09-15 00:17:00,57.5,52.0,30.05,WNW,286,0.0,5.0,81,0.00,,,0.00,0,weatherlink.com 1.10,2013-09-15 04:17:00,
2013-09-15 00:32:00,57.2,52.0,30.05,WNW,289,4.0,6.0,82,0.00,,,0.00,0,weatherlink.com 1.10,2013-09-15 04:32:00,
2013-09-15 00:47:00,57.1,52.0,30.06,WNW,289,0.0,4.0,82,0.00,,,0.00,0,weatherlink.com 1.10,2013-09-15 04:47:00,
2013-09-15 01:02:00,56.8,52.0,30.07,WNW,289,0.0,0.0,83,0.00,,,0.00,0,weatherlink.com 1.10,2013-09-15 05:02:00,
2013-09-15 01:17:00,56.4,52.0,30.07,WNW,289,0.0,4.0,84,0.00,,,0.00,0,weatherlink.com 1.10,2013-09-15 05:17:00,
2013-09-15 01:32:00,56.0,52.0,30.06,WNW,289,0.0,5.0,85,0.00,,,0.00,0,weatherlink.com 1.10,2013-09-15 05:32:00,
2013-09-15 01:47:00,55.9,52.0,30.07,WNW,289,3.0,4.0,85,0.00,,,0.00,0,weatherlink.com 1.10,2013-09-15 05:47:00,
2013-09-15 02:02:00,55.7,51.0,30.06,WNW,289,0.0,5.0,85,0.00,,,0.00,0,weatherlink.com 1.10,2013-09-15 06:02:00,
2013-09-15 02:17:00,55.5,51.0,30.07,WNW,289,0.0,0.0,86,0.00,,,0.00,0,weatherlink.com 1.10,2013-09-15 06:17:00,
2013-09-15 02:32:00,55.1,51.0,30.07,WNW,289,0.0,3.0,86,0.00,,,0.00,0,weatherlink.com 1.10,2013-09-15 06:32:00,
2013-09-15 02:47:00,55.1,51.0,30.07,WNW,289,4.0,4.0,86,0.00,,,0.00,0,weatherlink.com 1.10,2013-09-15 06:47:00,
2013-09-15 03:02:00,55.1,51.0,30.07,WNW,290,0.0,2.0,86,0.00,,,0.00,0,weatherlink.com 1.10,2013-09-15 07:02:00,
2013-09-15 03:17:00,54.9,51.0,30.07,WNW,290,0.0,1.0,86,0.00,,,0.00,0,weatherlink.com 1.10,2013-09-15 07:17:00,
2013-09-15 03:32:00,54.6,51.0,30.08,WNW,290,0.0,4.0,86,0.00,,,0.00,0,weatherlink.com 1.10,2013-09-15 07:32:00,
2013-09-15 03:47:00,54.5,51.0,30.08,WNW,290,0.0,1.0,87,0.00,,,0.00,0,weatherlink.com 1.10,2013-09-15 07:47:00,
2013-09-15 04:02:00,54.3,51.0,30.08,WNW,290,0.0,4.0,87,0.00,,,0.00,0,weatherlink.com 1.10,2013-09-15 08:02:00,
2013-09-15 04:17:00,54.1,50.0,30.08,WNW,290,0.0,2.0,87,0.00,,,0.00,0,weatherlink.com 1.10,2013-09-15 08:17:00,
2013-09-15 04:32:00,53.8,50.0,30.08,WNW,290,0.0,5.0,88,0.00,,,0.00,0,weatherlink.com 1.10,2013-09-15 08:32:00,
2013-09-15 04:47:00,53.6,50.0,30.09,WNW,290,0.0,0.0,88,0.00,,,0.00,0,weatherlink.com 1.10,2013-09-15 08:47:00,
2013-09-15 05:02:00,53.5,50.0,30.09,WNW,290,2.0,5.0,88,0.00,,,0.00,0,weatherlink.com 1.10,2013-09-15 09:02:00,
2013-09-15 05:17:00,53.2,50.0,30.10,WNW,290,0.0,4.0,88,0.00,,,0.00,0,weatherlink.com 1.10,2013-09-15 09:17:00,
2013-09-15 05:32:00,53.0,50.0,30.11,WNW,290,0.0,3.0,88,0.00,,,0.00,0,weatherlink.com 1.10,2013-09-15 09:32:00,
2013-09-15 05:47:00,52.8,50.0,30.11,WNW,290,0.0,0.0,89,0.00,,,0.00,0,weatherlink.com 1.10,2013-09-15 09:47:00,
2013-09-15 06:02:00,52.6,50.0,30.12,WNW,290,0.0,3.0,89,0.00,,,0.00,0,weatherlink.com 1.10,2013-09-15 10:02:00,
2013-09-15 06:17:00,52.3,49.0,30.12,WNW,290,1.0,1.0,89,0.00,,,0.00,0,weatherlink.com 1.10,2013-09-15 10:17:00,
2013-09-15 06:32:00,52.2,49.0,30.13,WNW,290,0.0,4.0,90,0.00,,,0.00,7,weatherlink.com 1.10,2013-09-15 10:32:00,
2013-09-15 06:47:00,52.3,50.0,30.13,WNW,290,0.0,0.0,90,0.00,,,0.00,14,weatherlink.com 1.10,2013-09-15 10:47:00,
2013-09-15 07:02:00,52.5,50.0,30.14,WNW,290,0.0,0.0,91,0.00,,,0.00,23,weatherlink.com 1.10,2013-09-15 11:02:00,
2013-09-15 07:17:00,53.2,50.0,30.13,WNW,290,0.0,0.0,90,0.00,,,0.00,30,weatherlink.com 1.10,2013-09-15 11:17:00,
2013-09-15 07:32:00,54.0,51.0,30.13,WNW,290,0.0,5.0,89,0.00,,,0.00,35,weatherlink.com 1.10,2013-09-15 11:32:00,
2013-09-15 07:47:00,54.8,51.0,30.13,WNW,290,0.0,4.0,87,0.00,,,0.00,44,weatherlink.com 1.10,2013-09-15 11:47:00,
2013-09-15 08:02:00,55.8,52.0,30.14,WNW,290,0.0,3.0,86,0.00,,,0.00,49,weatherlink.com 1.10,2013-09-15 12:02:00,
2013-09-15 08:17:00,56.4,52.0,30.13,WNW,290,0.0,4.0,85,0.00,,,0.00,54,weatherlink.com 1.10,2013-09-15 12:17:00,
2013-09-15 08:32:00,57.2,52.0,30.14,WNW,290,0.0,0.0,84,0.00,,,0.00,58,weatherlink.com 1.10,2013-09-15 12:32:00,
2013-09-15 08:47:00,57.8,52.0,30.14,WNW,290,0.0,4.0,82,0.00,,,0.00,69,weatherlink.com 1.10,2013-09-15 12:47:00,
2013-09-15 09:03:00,58.7,53.0,30.14,WNW,290,0.0,4.0,81,0.00,,,0.00,443,weatherlink.com 1.10,2013-09-15 13:03:00,
2013-09-15 09:18:00,59.9,53.0,30.15,WNW,290,0.0,3.0,78,0.00,,,0.00,487,weatherlink.com 1.10,2013-09-15 13:18:00,
2013-09-15 09:33:00,62.1,54.0,30.15,WNW,290,2.0,5.0,74,0.00,,,0.00,519,weatherlink.com 1.10,2013-09-15 13:33:00,
2013-09-15 09:48:00,64.4,55.0,30.15,WNW,290,0.0,5.0,71,0.00,,,0.00,561,weatherlink.com 1.10,2013-09-15 13:48:00,
2013-09-15 10:03:00,64.6,55.0,30.16,SW,223,3.0,7.0,70,0.00,,,0.00,598,weatherlink.com 1.10,2013-09-15 14:03:00,
2013-09-15 10:18:00,65.2,55.0,30.16,SSW,213,3.0,6.0,69,0.00,,,0.00,747,weatherlink.com 1.10,2013-09-15 14:18:00,
2013-09-15 10:33:00,65.6,55.0,30.16,SSW,206,2.0,5.0,68,0.00,,,0.00,650,weatherlink.com 1.10,2013-09-15 14:33:00,
2013-09-15 10:48:00,65.8,55.0,30.15,SSW,205,1.0,4.0,68,0.00,,,0.00,682,weatherlink.com 1.10,2013-09-15 14:48:00,
2013-09-15 11:03:00,67.4,55.0,30.15,SSW,206,0.0,6.0,64,0.00,,,0.00,719,weatherlink.com 1.10,2013-09-15 15:03:00,
2013-09-15 11:18:00,68.1,54.0,30.15,SSW,205,0.0,7.0,60,0.00,,,0.00,729,weatherlink.com 1.10,2013-09-15 15:18:00,
2013-09-15 11:33:00,69.1,52.0,30.14,SSW,205,0.0,5.0,55,0.00,,,0.00,756,weatherlink.com 1.10,2013-09-15 15:33:00,
2013-09-15 11:48:00,69.7,53.0,30.14,SW,215,4.0,8.0,55,0.00,,,0.00,749,weatherlink.com 1.10,2013-09-15 15:48:00,
2013-09-15 12:03:00,70.0,51.0,30.14,SSW,209,1.0,7.0,52,0.00,,,0.00,765,weatherlink.com 1.10,2013-09-15 16:03:00,
2013-09-15 12:18:00,70.9,53.0,30.13,WSW,246,6.0,7.0,53,0.00,,,0.00,782,weatherlink.com 1.10,2013-09-15 16:18:00,
2013-09-15 12:33:00,71.2,53.0,30.13,West,262,6.0,7.0,52,0.00,,,0.00,812,weatherlink.com 1.10,2013-09-15 16:33:00,
2013-09-15 12:48:00,71.4,52.0,30.12,SW,233,8.0,11.0,50,0.00,,,0.00,134,weatherlink.com 1.10,2013-09-15 16:48:00,
2013-09-15 13:03:00,70.9,54.0,30.12,SW,227,2.0,8.0,55,0.00,,,0.00,789,weatherlink.com 1.10,2013-09-15 17:03:00,
2013-09-15 13:18:00,71.0,54.0,30.12,SW,228,6.0,12.0,56,0.00,,,0.00,754,weatherlink.com 1.10,2013-09-15 17:18:00,
2013-09-15 13:33:00,71.2,54.0,30.10,SSW,200,5.0,11.0,55,0.00,,,0.00,749,weatherlink.com 1.10,2013-09-15 17:33:00,
2013-09-15 13:48:00,71.4,55.0,30.10,SSW,209,5.0,10.0,56,0.00,,,0.00,155,weatherlink.com 1.10,2013-09-15 17:48:00,
2013-09-15 14:18:00,71.9,55.0,30.09,SSW,207,4.0,10.0,56,0.00,,,0.00,76,weatherlink.com 1.10,2013-09-15 18:18:00,
2013-09-15 14:33:00,72.2,53.0,30.09,WSW,242,2.0,8.0,52,0.00,,,0.00,93,weatherlink.com 1.10,2013-09-15 18:33:00,
2013-09-15 14:48:00,72.5,53.0,30.08,WSW,241,0.0,10.0,50,0.00,,,0.00,67,weatherlink.com 1.10,2013-09-15 18:48:00,
2013-09-15 15:03:00,72.7,53.0,30.07,SW,225,6.0,11.0,51,0.00,,,0.00,65,weatherlink.com 1.10,2013-09-15 19:03:00,
2013-09-15 15:19:00,72.8,55.0,30.08,SW,220,1.0,8.0,53,0.00,,,0.00,127,weatherlink.com 1.10,2013-09-15 19:19:00,
2013-09-15 15:34:00,68.8,56.0,30.07,SSE,150,3.0,11.0,65,0.00,,,0.00,109,weatherlink.com 1.10,2013-09-15 19:34:00,
2013-09-15 15:49:00,66.2,57.0,30.07,SE,142,8.0,11.0,72,0.00,,,0.00,128,weatherlink.com 1.10,2013-09-15 19:49:00,
2013-09-15 16:04:00,66.5,57.0,30.07,SE,146,3.0,11.0,71,0.00,,,0.00,104,weatherlink.com 1.10,2013-09-15 20:04:00,
2013-09-15 16:19:00,66.3,55.0,30.06,SSE,158,4.0,6.0,68,0.00,,,0.00,63,weatherlink.com 1.10,2013-09-15 20:19:00,
2013-09-15 16:34:00,68.2,51.0,30.06,West,261,6.0,7.0,54,0.00,,,0.00,74,weatherlink.com 1.10,2013-09-15 20:34:00,
2013-09-15 16:49:00,69.9,53.0,30.05,West,268,1.0,9.0,55,0.00,,,0.00,91,weatherlink.com 1.10,2013-09-15 20:49:00,
2013-09-15 17:04:00,71.2,50.0,30.05,WSW,246,4.0,13.0,48,0.00,,,0.00,44,weatherlink.com 1.10,2013-09-15 21:04:00,
2013-09-15 17:19:00,71.0,51.0,30.05,WSW,247,6.0,10.0,50,0.00,,,0.00,33,weatherlink.com 1.10,2013-09-15 21:19:00,
2013-09-15 17:34:00,70.8,53.0,30.05,WSW,248,4.0,15.0,53,0.00,,,0.00,30,weatherlink.com 1.10,2013-09-15 21:34:00,
2013-09-15 17:50:00,70.3,52.0,30.05,WSW,249,2.0,12.0,53,0.00,,,0.00,12,weatherlink.com 1.10,2013-09-15 21:50:00,
2013-09-15 18:04:00,69.3,52.0,30.05,West,270,4.0,7.0,54,0.00,,,0.00,14,weatherlink.com 1.10,2013-09-15 22:04:00,
2013-09-15 18:19:00,68.2,51.0,30.05,WSW,255,1.0,11.0,54,0.00,,,0.00,26,weatherlink.com 1.10,2013-09-15 22:19:00,
2013-09-15 18:34:00,67.8,49.0,30.05,West,267,9.0,11.0,51,0.00,,,0.00,12,weatherlink.com 1.10,2013-09-15 22:34:00,
2013-09-15 18:49:00,67.5,49.0,30.05,WSW,253,0.0,7.0,51,0.00,,,0.00,0,weatherlink.com 1.10,2013-09-15 22:49:00,
2013-09-15 19:04:00,66.7,47.0,30.05,West,273,1.0,10.0,50,0.00,,,0.00,0,weatherlink.com 1.10,2013-09-15 23:04:00,
2013-09-15 19:19:00,66.3,47.0,30.05,West,266,2.0,4.0,51,0.00,,,0.00,0,weatherlink.com 1.10,2013-09-15 23:19:00,
2013-09-15 19:34:00,65.9,48.0,30.05,West,259,6.0,12.0,53,0.00,,,0.00,0,weatherlink.com 1.10,2013-09-15 23:34:00,
2013-09-15 19:49:00,65.7,49.0,30.05,WSW,257,3.0,11.0,55,0.00,,,0.00,0,weatherlink.com 1.10,2013-09-15 23:49:00,
2013-09-15 20:04:00,65.7,50.0,30.05,WSW,256,3.0,7.0,58,0.00,,,0.00,0,weatherlink.com 1.10,2013-09-16 00:04:00,
2013-09-15 20:19:00,65.8,51.0,30.05,WSW,256,3.0,5.0,59,0.00,,,0.00,0,weatherlink.com 1.10,2013-09-16 00:19:00,
2013-09-15 20:34:00,65.5,52.0,30.06,WSW,254,2.0,6.0,61,0.00,,,0.00,0,weatherlink.com 1.10,2013-09-16 00:34:00,
2013-09-15 20:49:00,65.1,52.0,30.06,WSW,253,2.0,6.0,63,0.00,,,0.00,0,weatherlink.com 1.10,2013-09-16 00:49:00,
2013-09-15 21:04:00,64.7,52.0,30.06,WSW,252,2.0,6.0,63,0.00,,,0.00,0,weatherlink.com 1.10,2013-09-16 01:04:00,
2013-09-15 21:19:00,64.5,51.0,30.06,WSW,252,1.0,5.0,63,0.00,,,0.00,0,weatherlink.com 1.10,2013-09-16 01:19:00,
2013-09-15 21:34:00,64.1,52.0,30.05,WSW,251,2.0,7.0,64,0.00,,,0.00,0,weatherlink.com 1.10,2013-09-16 01:34:00,
2013-09-15 21:49:00,63.8,52.0,30.05,WSW,249,2.0,7.0,66,0.00,,,0.00,0,weatherlink.com 1.10,2013-09-16 01:49:00,
2013-09-15 22:04:00,63.6,52.0,30.06,WSW,246,4.0,14.0,66,0.00,,,0.00,0,weatherlink.com 1.10,2013-09-16 02:04:00,
2013-09-15 22:19:00,63.4,51.0,30.05,WSW,254,7.0,15.0,64,0.00,,,0.00,0,weatherlink.com 1.10,2013-09-16 02:19:00,
2013-09-15 22:34:00,63.2,52.0,30.05,WSW,238,1.0,12.0,66,0.00,,,0.00,0,weatherlink.com 1.10,2013-09-16 02:34:00,
2013-09-15 22:49:00,62.5,52.0,30.05,WSW,245,2.0,14.0,68,0.00,,,0.00,0,weatherlink.com 1.10,2013-09-16 02:49:00,
2013-09-15 23:04:00,62.0,52.0,30.05,WSW,244,2.0,6.0,70,0.00,,,0.00,0,weatherlink.com 1.10,2013-09-16 03:04:00,
2013-09-15 23:19:00,61.4,52.0,30.05,WSW,244,2.0,6.0,72,0.00,,,0.00,0,weatherlink.com 1.10,2013-09-16 03:19:00,
2013-09-15 23:34:00,60.9,52.0,30.05,WSW,248,5.0,6.0,73,0.00,,,0.00,0,weatherlink.com 1.10,2013-09-16 03:34:00,
2013-09-15 23:49:00,60.6,52.0,30.04,WSW,251,0.0,4.0,74,0.00,,,0.00,0,weatherlink.com 1.10,2013-09-16 03:49:00,